createdAt,value
2019-04-21T00:02:06.660Z,42.32
2019-04-21T00:04:52.052Z,42.53
2019-04-21T00:07:31.607Z,42.59
2019-04-21T00:10:06.303Z,42.90
2019-04-21T00:12:38.913Z,43.03
2019-04-21T00:15:02.112Z,43.01
2019-04-21T00:17:29.896Z,43.28
2019-04-21T00:20:12.478Z,43.35
2019-04-21T00:22:52.115Z,43.52
2019-04-21T00:25:27.542Z,43.57
2019-04-21T00:28:03.156Z,43.89
2019-04-21T00:30:41.224Z,44.24
2019-04-21T00:33:03.114Z,44.47
2019-04-21T00:35:29.379Z,44.95
2019-04-21T00:38:17.208Z,45.11
2019-04-21T00:40:55.424Z,45.35
2019-04-21T00:43:25.262Z,45.65
2019-04-21T00:45:53.602Z,45.72
2019-04-21T00:48:36.567Z,45.42
2019-04-21T00:51:25.022Z,45.71
2019-04-21T00:56:21.828Z,46.04
2019-04-21T00:58:59.900Z,46.09
2019-04-21T01:01:27.972Z,45.99
2019-04-21T01:04:06.224Z,46.12
2019-04-21T01:06:39.747Z,46.33
2019-04-21T01:09:07.950Z,46.31
2019-04-21T01:11:47.478Z,46.42
2019-04-21T01:14:25.899Z,46.34
2019-04-21T01:16:53.304Z,46.60
2019-04-21T01:19:23.797Z,46.63
2019-04-21T01:21:37.530Z,47.00
2019-04-21T01:24:16.896Z,46.86
2019-04-21T01:26:55.646Z,47.03
2019-04-21T01:29:44.168Z,47.11
2019-04-21T01:32:19.625Z,47.19
2019-04-21T01:37:15.826Z,47.54
2019-04-21T01:39:55.341Z,47.88
2019-04-21T01:42:25.633Z,47.94
2019-04-21T01:44:59.949Z,48.01
2019-04-21T01:47:29.337Z,48.05
2019-04-21T01:49:56.799Z,48.23
2019-04-21T01:52:44.220Z,48.46
2019-04-21T01:55:25.158Z,48.61
2019-04-21T01:58:02.860Z,48.95
2019-04-21T02:00:55.051Z,49.01
2019-04-21T02:03:49.698Z,49.08
2019-04-21T02:06:11.317Z,49.30
2019-04-21T02:08:34.550Z,49.28
2019-04-21T02:11:17.004Z,49.69
2019-04-21T02:13:55.578Z,49.78
2019-04-21T02:16:18.584Z,49.84
2019-04-21T02:18:53.076Z,50.15
2019-04-21T02:21:21.709Z,50.66
2019-04-21T02:24:04.976Z,50.83
2019-04-21T02:26:36.142Z,50.79
2019-04-21T02:29:18.320Z,50.93
2019-04-21T02:31:57.188Z,50.99
2019-04-21T02:34:32.276Z,50.98
2019-04-21T02:39:37.378Z,51.43
2019-04-21T02:42:15.037Z,51.53
2019-04-21T02:44:46.292Z,51.52
2019-04-21T02:47:16.897Z,51.71
2019-04-21T02:52:31.886Z,51.29
2019-04-21T02:55:02.925Z,51.57
2019-04-21T02:57:32.142Z,51.61
2019-04-21T03:00:15.670Z,51.92
2019-04-21T03:03:06.993Z,51.92
2019-04-21T03:05:50.509Z,51.90
2019-04-21T03:08:34.357Z,51.98
2019-04-21T03:11:07.388Z,52.05
2019-04-21T03:13:44.499Z,52.26
2019-04-21T03:18:46.043Z,52.26
2019-04-21T03:23:57.295Z,51.93
2019-04-21T03:26:28.278Z,52.08
2019-04-21T03:29:00.896Z,51.95
2019-04-21T03:39:01.215Z,51.94
2019-04-21T03:41:48.363Z,52.11
2019-04-21T03:44:26.700Z,52.07
2019-04-21T03:46:55.691Z,52.03
2019-04-21T03:49:27.836Z,52.04
2019-04-21T03:52:03.793Z,52.02
2019-04-21T03:54:37.389Z,51.95
2019-04-21T03:59:38.852Z,52.06
2019-04-21T04:02:24.414Z,51.93
2019-04-21T04:05:07.312Z,52.13
2019-04-21T04:08:08.708Z,52.13
2019-04-21T04:10:22.913Z,52.21
2019-04-21T04:13:01.492Z,52.43
2019-04-21T04:15:42.972Z,52.20
2019-04-21T04:18:07.634Z,52.20
2019-04-21T04:20:48.039Z,52.35
2019-04-21T04:23:13.953Z,52.29
2019-04-21T04:28:23.023Z,52.01
2019-04-21T04:30:52.414Z,51.86
2019-04-21T04:33:37.732Z,51.72
2019-04-21T04:36:15.471Z,51.76
2019-04-21T04:38:46.815Z,51.90
2019-04-21T04:43:54.904Z,51.92
2019-04-21T04:46:29.041Z,52.09
2019-04-21T04:49:01.734Z,52.08
2019-04-21T04:51:48.361Z,52.55
2019-04-21T04:54:17.126Z,52.35
2019-04-21T04:56:38.386Z,52.48
2019-04-21T05:04:30.394Z,52.58
2019-04-21T05:11:55.399Z,52.19
2019-04-21T05:14:30.318Z,52.16
2019-04-21T05:17:14.106Z,51.90
2019-04-21T05:19:42.636Z,52.23
2019-04-21T05:22:20.230Z,51.92
2019-04-21T05:24:42.340Z,51.51
2019-04-21T05:27:25.332Z,51.25
2019-04-21T05:30:15.404Z,51.13
2019-04-21T05:32:58.290Z,51.33
2019-04-21T05:35:45.207Z,51.22
2019-04-21T05:38:21.831Z,51.34
2019-04-21T05:40:52.394Z,50.96
2019-04-21T05:43:32.457Z,50.94
2019-04-21T05:46:04.401Z,50.80
2019-04-21T05:48:46.909Z,50.49
2019-04-21T05:51:18.832Z,50.25
2019-04-21T05:54:04.900Z,50.18
2019-04-21T05:56:30.620Z,50.14
2019-04-21T05:59:00.656Z,49.99
2019-04-21T06:04:16.934Z,49.82
2019-04-21T06:06:51.499Z,49.73
2019-04-21T06:09:19.194Z,49.75
2019-04-21T06:11:51.330Z,49.78
2019-04-21T06:14:30.494Z,49.90
2019-04-21T06:17:01.546Z,49.67
2019-04-21T06:19:37.887Z,49.36
2019-04-21T06:22:03.593Z,48.80
2019-04-21T06:24:42.302Z,48.79
2019-04-21T06:27:16.287Z,48.62
2019-04-21T06:29:50.262Z,48.63
2019-04-21T06:32:35.914Z,48.17
2019-04-21T06:42:48.562Z,47.15
2019-04-21T06:45:25.427Z,47.19
2019-04-21T06:47:50.078Z,47.19
2019-04-21T06:50:24.248Z,46.85
2019-04-21T06:53:01.027Z,46.80
2019-04-21T06:55:49.710Z,46.48
2019-04-21T06:58:05.095Z,46.34
2019-04-21T07:00:38.542Z,46.25
2019-04-21T07:03:20.708Z,46.19
2019-04-21T07:05:48.455Z,45.76
2019-04-21T07:08:31.335Z,45.29
2019-04-21T07:10:51.794Z,44.67
2019-04-21T07:13:26.370Z,43.91
2019-04-21T07:16:09.093Z,42.89
2019-04-21T07:18:36.950Z,42.88
2019-04-21T07:21:08.168Z,42.21
2019-04-21T07:23:47.226Z,41.66
2019-04-21T07:26:19.696Z,41.90
2019-04-21T07:28:56.889Z,42.12
2019-04-21T07:31:25.188Z,41.54
2019-04-21T07:33:58.710Z,41.24
2019-04-21T07:36:38.259Z,41.35
2019-04-21T07:39:00.484Z,40.79
2019-04-21T07:41:34.020Z,39.87
2019-04-21T07:43:59.163Z,39.36
2019-04-21T07:46:37.178Z,40.50
2019-04-21T07:49:43.645Z,40.38
2019-04-21T07:52:28.316Z,41.20
2019-04-21T07:55:12.434Z,40.64
2019-04-21T07:57:33.221Z,39.87
2019-04-21T08:02:47.679Z,39.28
2019-04-21T08:07:51.930Z,39.35
2019-04-21T08:10:22.546Z,39.17
2019-04-21T08:12:54.449Z,38.72
2019-04-21T08:15:44.155Z,38.72
2019-04-21T08:18:09.202Z,38.09
2019-04-21T08:20:35.130Z,38.19
2019-04-21T08:23:13.086Z,38.32
2019-04-21T08:25:53.091Z,38.30
2019-04-21T08:28:19.197Z,38.16
2019-04-21T08:30:56.808Z,37.99
2019-04-21T08:33:37.175Z,37.74
2019-04-21T08:38:36.237Z,35.85
2019-04-21T08:41:08.601Z,36.11
2019-04-21T08:43:48.213Z,36.01
2019-04-21T08:46:22.721Z,35.54
2019-04-21T08:51:43.745Z,34.80
2019-04-21T08:54:01.415Z,34.39
2019-04-21T08:57:01.173Z,33.87
2019-04-21T09:00:08.800Z,33.51
2019-04-21T09:03:02.530Z,32.81
2019-04-21T09:05:29.537Z,32.58
2019-04-21T09:08:10.742Z,32.69
2019-04-21T09:10:39.203Z,32.49
2019-04-21T09:13:10.268Z,32.57
2019-04-21T09:15:47.408Z,31.75
2019-04-21T09:18:21.463Z,31.83
2019-04-21T09:21:01.116Z,31.13
2019-04-21T09:23:25.666Z,31.19
2019-04-21T09:26:08.224Z,31.02
2019-04-21T09:28:32.500Z,31.42
2019-04-21T09:30:55.953Z,31.08
2019-04-21T09:33:33.418Z,30.65
2019-04-21T09:36:02.554Z,29.87
2019-04-21T09:38:37.135Z,29.53
2019-04-21T09:41:06.776Z,29.43
2019-04-21T09:43:45.270Z,28.94
2019-04-21T09:46:14.217Z,27.73
2019-04-21T09:48:53.764Z,28.13
2019-04-21T09:51:21.231Z,27.79
2019-04-21T09:54:00.909Z,27.24
2019-04-21T09:56:36.016Z,27.45
2019-04-21T09:59:11.744Z,25.84
2019-04-21T10:01:49.137Z,26.89
2019-04-21T10:04:07.896Z,26.33
2019-04-21T10:06:40.101Z,26.28
2019-04-21T10:09:14.858Z,25.09
2019-04-21T10:11:46.467Z,24.84
2019-04-21T10:14:19.461Z,24.55
2019-04-21T10:31:12.903Z,24.08
2019-04-21T10:33:46.529Z,24.34
2019-04-21T10:36:19.110Z,25.22
2019-04-21T10:38:53.979Z,24.01
2019-04-21T10:41:27.484Z,23.65
2019-04-21T10:44:01.026Z,23.73
2019-04-21T10:46:34.874Z,23.94
2019-04-21T10:49:07.031Z,23.97
2019-04-21T10:51:39.337Z,23.86
2019-04-21T10:54:11.795Z,23.16
2019-04-21T10:56:45.585Z,23.02
2019-04-21T10:59:18.287Z,23.95
2019-04-21T11:01:50.740Z,24.37
2019-04-21T11:04:32.298Z,24.36
2019-04-21T11:07:06.976Z,24.88
2019-04-21T11:09:36.132Z,24.88
2019-04-21T11:12:10.068Z,25.08
2019-04-21T11:14:43.094Z,24.00
2019-04-21T11:17:16.440Z,23.69
2019-04-21T11:19:48.604Z,23.23
2019-04-21T11:22:20.940Z,23.66
2019-04-21T11:24:53.450Z,23.67
2019-04-21T11:27:26.819Z,23.30
2019-04-21T11:29:59.832Z,22.98
2019-04-21T11:32:32.813Z,23.23
2019-04-21T11:35:07.388Z,22.94
2019-04-21T11:37:39.962Z,22.56
2019-04-21T11:40:14.982Z,22.42
2019-04-21T11:42:48.033Z,21.91
2019-04-21T11:45:32.797Z,22.05
2019-04-21T11:48:26.246Z,21.41
2019-04-21T11:50:59.257Z,21.66
2019-04-21T11:53:32.855Z,22.58
2019-04-21T11:56:05.328Z,23.72
2019-04-21T11:58:37.341Z,24.85
2019-04-21T12:01:09.651Z,24.28
2019-04-21T12:03:42.290Z,24.65
2019-04-21T12:06:15.337Z,24.62
2019-04-21T12:08:50.917Z,25.64
2019-04-21T12:11:21.315Z,25.21
2019-04-21T12:13:54.256Z,23.33
2019-04-21T12:16:26.443Z,22.60
2019-04-21T12:18:58.834Z,21.07
2019-04-21T12:21:45.164Z,22.71
2019-04-21T12:24:04.949Z,21.91
2019-04-21T12:26:37.943Z,21.28
2019-04-21T12:29:10.332Z,20.93
2019-04-21T12:32:01.343Z,20.15
2019-04-21T12:34:34.266Z,19.40
2019-04-21T12:37:06.687Z,18.97
2019-04-21T12:39:38.856Z,20.73
2019-04-21T12:42:12.242Z,21.25
2019-04-21T12:44:45.414Z,21.14
2019-04-21T12:47:19.566Z,20.07
2019-04-21T12:49:52.087Z,17.15
2019-04-21T12:52:24.193Z,16.08
2019-04-21T12:54:57.528Z,15.39
2019-04-21T12:57:31.492Z,14.10
2019-04-21T13:00:04.725Z,13.46
2019-04-21T13:02:37.949Z,13.56
2019-04-21T13:05:11.648Z,14.75
2019-04-21T13:07:43.761Z,13.16
2019-04-21T13:10:18.309Z,13.11
2019-04-21T13:12:50.418Z,12.31
2019-04-21T13:15:22.421Z,14.53
2019-04-21T13:17:54.628Z,14.64
2019-04-21T13:20:29.497Z,15.08
2019-04-21T13:23:05.935Z,16.50
2019-04-21T13:25:38.224Z,17.76
2019-04-21T13:28:10.504Z,18.94
2019-04-21T13:30:42.615Z,19.80
2019-04-21T13:33:15.437Z,21.25
2019-04-21T13:35:48.823Z,21.39
2019-04-21T13:38:32.327Z,21.37
2019-04-21T13:41:27.348Z,21.05
2019-04-21T13:43:45.476Z,21.70
2019-04-21T13:46:17.772Z,20.69
2019-04-21T13:48:50.719Z,19.37
2019-04-21T13:51:23.186Z,17.38
2019-04-21T13:53:55.507Z,17.26
2019-04-21T13:56:28.912Z,17.74
2019-04-21T13:59:02.259Z,17.92
2019-04-21T14:01:35.851Z,19.39
2019-04-21T14:04:09.542Z,20.37
2019-04-21T14:06:42.443Z,18.01
2019-04-21T14:09:15.679Z,18.64
2019-04-21T14:11:49.317Z,20.63
2019-04-21T14:14:21.462Z,20.81
2019-04-21T14:16:54.236Z,18.77
2019-04-21T14:19:27.705Z,21.02
2019-04-21T14:22:01.208Z,23.09
2019-04-21T14:24:33.404Z,24.05
2019-04-21T14:27:05.978Z,24.99
2019-04-21T14:29:39.578Z,25.88
2019-04-21T14:32:11.519Z,25.82
2019-04-21T14:34:44.098Z,26.23
2019-04-21T14:37:17.008Z,28.39
2019-04-21T14:39:57.822Z,31.94
2019-04-21T14:42:24.273Z,30.78
2019-04-21T14:44:56.814Z,30.36
2019-04-21T14:47:54.313Z,30.55
2019-04-21T14:50:42.177Z,29.92
2019-04-21T14:53:25.543Z,30.23
2019-04-21T14:55:57.616Z,29.37
2019-04-21T14:58:30.848Z,28.78
2019-04-21T15:01:08.296Z,29.03
2019-04-21T15:03:41.682Z,28.85
2019-04-21T15:06:13.632Z,29.13
2019-04-21T15:08:47.000Z,29.65
2019-04-21T15:11:20.033Z,29.67
2019-04-21T15:13:53.623Z,29.63
2019-04-21T15:16:26.647Z,29.14
2019-04-21T15:18:59.142Z,28.95
2019-04-21T15:21:33.877Z,28.73
2019-04-21T15:24:06.543Z,29.09
2019-04-21T15:26:40.038Z,29.92
2019-04-21T15:29:12.869Z,30.75
2019-04-21T15:31:45.355Z,30.02
2019-04-21T15:34:22.055Z,30.08
2019-04-21T15:36:52.958Z,30.71
2019-04-21T15:39:25.751Z,30.76
2019-04-21T15:41:58.902Z,31.53
2019-04-21T15:44:32.418Z,32.17
2019-04-21T15:47:06.012Z,33.69
2019-04-21T15:50:03.617Z,34.09
2019-04-21T15:52:31.789Z,35.28
2019-04-21T15:55:14.985Z,34.90
2019-04-21T15:58:02.607Z,34.74
2019-04-21T16:00:42.615Z,33.98
2019-04-21T16:03:14.650Z,33.70
2019-04-21T16:05:46.895Z,33.00
2019-04-21T16:08:18.734Z,32.59
2019-04-21T16:10:56.556Z,32.42
2019-04-21T16:13:25.695Z,32.29
2019-04-21T16:15:58.822Z,32.12
2019-04-21T16:18:31.997Z,32.24
2019-04-21T16:21:06.020Z,33.40
2019-04-21T16:23:38.365Z,33.94
2019-04-21T16:26:10.871Z,34.16
2019-04-21T16:28:43.326Z,34.13
2019-04-21T16:31:16.337Z,34.15
2019-04-21T16:33:49.202Z,34.41
2019-04-21T16:36:21.640Z,34.48
2019-04-21T16:38:53.679Z,36.03
2019-04-21T16:41:26.865Z,37.06
2019-04-21T16:43:58.920Z,37.72
2019-04-21T16:46:31.703Z,38.56
2019-04-21T16:49:04.152Z,38.98
2019-04-21T16:51:38.053Z,40.03
2019-04-21T16:54:19.963Z,41.96
2019-04-21T16:57:08.275Z,42.53
2019-04-21T16:59:44.345Z,44.80
2019-04-21T17:02:18.574Z,47.06
2019-04-21T17:04:52.105Z,48.01
2019-04-21T17:07:24.532Z,48.87
2019-04-21T17:09:56.905Z,50.44
2019-04-21T17:12:31.188Z,50.93
2019-04-21T17:15:18.760Z,50.75
2019-04-21T17:18:00.801Z,51.87
2019-04-21T17:20:25.931Z,53.17
2019-04-21T17:22:46.958Z,54.01
2019-04-21T17:25:21.671Z,54.04
2019-04-21T17:27:54.545Z,55.32
2019-04-21T17:30:26.941Z,56.25
2019-04-21T17:32:59.588Z,57.23
2019-04-21T17:35:32.945Z,57.11
2019-04-21T17:38:06.017Z,58.06
2019-04-21T17:40:38.030Z,57.65
2019-04-21T17:43:14.321Z,57.90
2019-04-21T17:45:44.896Z,59.06
2019-04-21T17:48:18.430Z,58.02
2019-04-21T17:51:09.661Z,58.76
2019-04-21T17:53:58.688Z,58.38
2019-04-21T17:56:53.743Z,58.70
2019-04-21T17:59:28.131Z,58.56
2019-04-21T18:02:09.376Z,59.63
2019-04-21T18:04:30.731Z,59.94
2019-04-21T18:07:26.264Z,59.90
2019-04-21T18:10:14.383Z,59.74
2019-04-21T18:12:40.782Z,59.25
2019-04-21T18:15:16.168Z,59.01
2019-04-21T18:17:27.038Z,59.24
2019-04-21T18:19:59.705Z,59.16
2019-04-21T18:22:51.311Z,59.68
2019-04-21T18:25:37.508Z,59.95
2019-04-21T18:27:58.853Z,59.63
2019-04-21T18:31:03.045Z,59.88
2019-04-21T18:33:40.408Z,59.46
2019-04-21T18:36:49.774Z,59.10
2019-04-21T18:39:46.415Z,58.68
2019-04-21T18:42:47.886Z,58.74
2019-04-21T18:45:48.021Z,58.56
2019-04-21T18:48:32.822Z,57.78
2019-04-21T18:51:14.164Z,57.67
2019-04-21T18:54:17.688Z,57.51
2019-04-21T18:56:31.633Z,57.31
2019-04-21T18:59:04.444Z,57.49
2019-04-21T19:01:38.439Z,57.39
2019-04-21T19:04:14.300Z,57.42
2019-04-21T19:07:02.980Z,57.65
2019-04-21T19:09:47.422Z,57.23
2019-04-21T19:12:16.741Z,57.11
2019-04-21T19:14:43.073Z,57.47
2019-04-21T19:17:48.351Z,57.62
2019-04-21T19:19:55.884Z,57.54
2019-04-21T19:22:28.155Z,58.01
2019-04-21T19:25:04.784Z,58.68
2019-04-21T19:27:31.126Z,59.17
2019-04-21T19:30:28.758Z,59.22
2019-04-21T19:32:39.049Z,60.01
2019-04-21T19:34:59.678Z,62.19
2019-04-21T19:37:40.120Z,62.91
2019-04-21T19:40:16.341Z,63.87
2019-04-21T19:42:51.220Z,63.50
2019-04-21T19:45:29.386Z,64.05
2019-04-21T19:48:05.570Z,63.99
2019-04-21T19:50:43.936Z,64.07
2019-04-21T19:53:02.955Z,64.32
2019-04-21T19:55:28.292Z,64.00
2019-04-21T19:58:00.972Z,64.68
2019-04-21T20:00:34.655Z,65.53
2019-04-21T20:03:08.432Z,64.95
2019-04-21T20:05:47.651Z,64.60
2019-04-21T20:08:28.069Z,64.70
2019-04-21T20:11:10.707Z,65.16
2019-04-21T20:13:59.790Z,65.78
2019-04-21T20:16:15.098Z,66.74
2019-04-21T20:18:37.869Z,66.78
2019-04-21T20:21:04.008Z,67.05
2019-04-21T20:23:39.715Z,66.82
2019-04-21T20:26:12.206Z,66.85
2019-04-21T20:28:54.700Z,66.67
2019-04-21T20:31:36.738Z,67.00
2019-04-21T20:34:14.116Z,67.26
2019-04-21T20:36:51.424Z,66.75
2019-04-21T20:39:07.307Z,67.13
2019-04-21T20:41:46.831Z,67.37
2019-04-21T20:44:24.734Z,67.22
2019-04-21T20:46:59.782Z,67.60
2019-04-21T20:49:27.517Z,67.29
2019-04-21T20:52:13.526Z,67.77
2019-04-21T20:54:41.009Z,67.41
2019-04-21T20:57:18.866Z,67.57
2019-04-21T20:59:44.035Z,67.87
2019-04-21T21:02:21.097Z,67.82
2019-04-21T21:04:49.233Z,67.82
2019-04-21T21:07:41.674Z,67.87
2019-04-21T21:10:04.428Z,68.04
2019-04-21T21:12:43.164Z,68.28
2019-04-21T21:15:04.161Z,68.28
2019-04-21T21:17:53.836Z,68.27
2019-04-21T21:20:26.174Z,68.42
2019-04-21T21:22:50.906Z,68.41
2019-04-21T21:25:36.620Z,68.53
2019-04-21T21:27:54.908Z,68.35
2019-04-21T21:30:34.641Z,68.29
2019-04-21T21:33:12.603Z,68.27
2019-04-21T21:35:40.999Z,68.41
2019-04-21T21:38:19.736Z,68.30
2019-04-21T21:40:51.722Z,68.27
2019-04-21T21:43:17.621Z,68.32
2019-04-21T21:45:51.274Z,68.27
2019-04-21T21:48:31.772Z,68.23
2019-04-21T21:51:04.187Z,68.17
2019-04-21T21:53:30.144Z,67.83
2019-04-21T21:56:00.710Z,67.74
2019-04-21T21:58:38.644Z,67.88
2019-04-21T22:01:11.751Z,68.04
2019-04-21T22:03:47.238Z,68.05
2019-04-21T22:06:22.731Z,68.13
2019-04-21T22:08:52.704Z,68.12
2019-04-21T22:11:26.014Z,68.18
2019-04-21T22:14:04.367Z,68.18
2019-04-21T22:16:46.645Z,68.33
2019-04-21T22:19:21.913Z,68.43
2019-04-21T22:22:00.687Z,68.45
2019-04-21T22:24:35.155Z,68.60
2019-04-21T22:26:49.514Z,68.59
2019-04-21T22:29:21.607Z,68.61
2019-04-21T22:32:04.210Z,68.75
2019-04-21T22:34:33.870Z,68.81
2019-04-21T22:37:18.049Z,68.83
2019-04-21T22:39:51.573Z,68.97
2019-04-21T22:42:15.443Z,68.96
2019-04-21T22:44:42.906Z,69.15
2019-04-21T22:47:22.204Z,69.16
2019-04-21T22:49:48.708Z,69.13
2019-04-21T22:52:24.032Z,69.17
2019-04-21T22:54:55.829Z,68.98
2019-04-21T22:57:32.476Z,69.00
2019-04-21T23:00:07.080Z,69.05
2019-04-21T23:02:39.281Z,68.94
2019-04-21T23:05:11.441Z,68.76
2019-04-21T23:07:50.226Z,68.58
2019-04-21T23:10:19.207Z,68.60
2019-04-21T23:12:52.199Z,68.53
2019-04-21T23:15:36.854Z,68.44
2019-04-21T23:18:22.998Z,68.38
2019-04-21T23:20:53.566Z,68.39
2019-04-21T23:23:29.709Z,68.28
2019-04-21T23:25:56.016Z,68.26
2019-04-21T23:28:38.557Z,68.33
2019-04-21T23:31:06.736Z,68.33
2019-04-21T23:33:22.098Z,68.24
2019-04-21T23:36:02.625Z,68.35
2019-04-21T23:38:36.541Z,68.36
2019-04-21T23:41:05.620Z,68.34
2019-04-21T23:43:38.157Z,68.34
2019-04-21T23:46:18.838Z,68.38
2019-04-21T23:49:01.809Z,68.50
2019-04-21T23:51:31.397Z,68.62
2019-04-21T23:53:51.245Z,68.76
2019-04-21T23:56:30.312Z,68.86
